sensor_id;sensor_type;location;lat;lon;timestamp;P1;durP1;ratioP1;P2;durP2;ratioP2
7647;SDS011;3866;48.020;11.720;2022-12-18T00:02:05;67.17;;;29.37;;
7647;SDS011;3866;48.020;11.720;2022-12-18T00:04:34;66.63;;;30.17;;
7647;SDS011;3866;48.020;11.720;2022-12-18T00:07:01;71.17;;;29.43;;
7647;SDS011;3866;48.020;11.720;2022-12-18T00:09:28;66.37;;;27.10;;
7647;SDS011;3866;48.020;11.720;2022-12-18T00:11:55;65.93;;;28.23;;
7647;SDS011;3866;48.020;11.720;2022-12-18T00:14:21;69.53;;;26.57;;
7647;SDS011;3866;48.020;11.720;2022-12-18T00:16:48;58.30;;;24.97;;
7647;SDS011;3866;48.020;11.720;2022-12-18T00:19:15;67.63;;;27.70;;
7647;SDS011;3866;48.020;11.720;2022-12-18T00:21:44;70.30;;;28.10;;
7647;SDS011;3866;48.020;11.720;2022-12-18T00:24:11;64.17;;;28.67;;
7647;SDS011;3866;48.020;11.720;2022-12-18T00:26:38;79.10;;;31.23;;
7647;SDS011;3866;48.020;11.720;2022-12-18T00:29:06;65.43;;;29.97;;
7647;SDS011;3866;48.020;11.720;2022-12-18T00:31:36;71.03;;;29.60;;
7647;SDS011;3866;48.020;11.720;2022-12-18T00:34:03;70.40;;;28.87;;
7647;SDS011;3866;48.020;11.720;2022-12-18T00:36:31;95.90;;;30.13;;
7647;SDS011;3866;48.020;11.720;2022-12-18T00:39:02;74.77;;;31.67;;
7647;SDS011;3866;48.020;11.720;2022-12-18T00:41:30;70.87;;;29.53;;
7647;SDS011;3866;48.020;11.720;2022-12-18T00:44:16;71.33;;;30.23;;
7647;SDS011;3866;48.020;11.720;2022-12-18T00:46:44;76.00;;;31.17;;
7647;SDS011;3866;48.020;11.720;2022-12-18T00:49:11;68.40;;;30.53;;
7647;SDS011;3866;48.020;11.720;2022-12-18T00:51:38;77.40;;;29.60;;
7647;SDS011;3866;48.020;11.720;2022-12-18T00:54:07;75.67;;;30.70;;
7647;SDS011;3866;48.020;11.720;2022-12-18T00:56:34;75.27;;;29.90;;
7647;SDS011;3866;48.020;11.720;2022-12-18T00:59:02;77.63;;;30.50;;
7647;SDS011;3866;48.020;11.720;2022-12-18T01:01:29;70.53;;;30.20;;
7647;SDS011;3866;48.020;11.720;2022-12-18T01:03:57;76.73;;;30.97;;
7647;SDS011;3866;48.020;11.720;2022-12-18T01:06:25;64.20;;;29.00;;
7647;SDS011;3866;48.020;11.720;2022-12-18T01:08:52;65.50;;;28.23;;
7647;SDS011;3866;48.020;11.720;2022-12-18T01:11:20;84.67;;;29.87;;
7647;SDS011;3866;48.020;11.720;2022-12-18T01:13:47;63.57;;;30.00;;
7647;SDS011;3866;48.020;11.720;2022-12-18T01:16:15;69.80;;;30.27;;
7647;SDS011;3866;48.020;11.720;2022-12-18T01:18:43;65.70;;;28.97;;
7647;SDS011;3866;48.020;11.720;2022-12-18T01:21:12;76.43;;;30.13;;
7647;SDS011;3866;48.020;11.720;2022-12-18T01:23:41;71.30;;;30.43;;
7647;SDS011;3866;48.020;11.720;2022-12-18T01:26:08;69.93;;;29.33;;
7647;SDS011;3866;48.020;11.720;2022-12-18T01:28:39;68.97;;;30.83;;
7647;SDS011;3866;48.020;11.720;2022-12-18T01:31:14;76.50;;;29.73;;
7647;SDS011;3866;48.020;11.720;2022-12-18T01:33:43;63.57;;;29.27;;
7647;SDS011;3866;48.020;11.720;2022-12-18T01:36:14;72.20;;;30.37;;
7647;SDS011;3866;48.020;11.720;2022-12-18T01:38:43;67.07;;;30.77;;
7647;SDS011;3866;48.020;11.720;2022-12-18T01:41:10;72.03;;;30.53;;
7647;SDS011;3866;48.020;11.720;2022-12-18T01:43:43;75.77;;;29.57;;
7647;SDS011;3866;48.020;11.720;2022-12-18T01:46:12;70.63;;;30.27;;
7647;SDS011;3866;48.020;11.720;2022-12-18T01:48:39;69.87;;;30.83;;
7647;SDS011;3866;48.020;11.720;2022-12-18T01:51:07;71.47;;;30.83;;
7647;SDS011;3866;48.020;11.720;2022-12-18T01:53:35;68.50;;;30.03;;
7647;SDS011;3866;48.020;11.720;2022-12-18T01:56:03;70.57;;;30.33;;
7647;SDS011;3866;48.020;11.720;2022-12-18T01:58:32;67.73;;;29.23;;
7647;SDS011;3866;48.020;11.720;2022-12-18T02:01:06;70.20;;;29.77;;
7647;SDS011;3866;48.020;11.720;2022-12-18T02:03:34;73.67;;;31.53;;
7647;SDS011;3866;48.020;11.720;2022-12-18T02:06:03;74.60;;;31.57;;
7647;SDS011;3866;48.020;11.720;2022-12-18T02:08:37;70.53;;;28.90;;
7647;SDS011;3866;48.020;11.720;2022-12-18T02:11:14;71.90;;;30.83;;
7647;SDS011;3866;48.020;11.720;2022-12-18T02:13:53;71.67;;;29.93;;
7647;SDS011;3866;48.020;11.720;2022-12-18T02:16:31;75.30;;;31.27;;
7647;SDS011;3866;48.020;11.720;2022-12-18T02:19:06;76.13;;;32.27;;
7647;SDS011;3866;48.020;11.720;2022-12-18T02:21:44;66.33;;;31.43;;
7647;SDS011;3866;48.020;11.720;2022-12-18T02:24:21;76.77;;;31.80;;
7647;SDS011;3866;48.020;11.720;2022-12-18T02:26:58;77.17;;;32.33;;
7647;SDS011;3866;48.020;11.720;2022-12-18T02:29:29;79.23;;;32.27;;
7647;SDS011;3866;48.020;11.720;2022-12-18T02:32:00;74.13;;;32.40;;
7647;SDS011;3866;48.020;11.720;2022-12-18T02:34:31;79.47;;;31.33;;
7647;SDS011;3866;48.020;11.720;2022-12-18T02:37:03;79.77;;;32.87;;
7647;SDS011;3866;48.020;11.720;2022-12-18T02:39:33;78.20;;;32.53;;
7647;SDS011;3866;48.020;11.720;2022-12-18T02:42:04;74.37;;;31.17;;
7647;SDS011;3866;48.020;11.720;2022-12-18T02:44:33;79.53;;;32.07;;
7647;SDS011;3866;48.020;11.720;2022-12-18T02:47:01;75.80;;;32.67;;
7647;SDS011;3866;48.020;11.720;2022-12-18T02:49:31;66.57;;;30.60;;
7647;SDS011;3866;48.020;11.720;2022-12-18T02:52:05;70.90;;;30.20;;
7647;SDS011;3866;48.020;11.720;2022-12-18T02:54:43;67.47;;;28.80;;
7647;SDS011;3866;48.020;11.720;2022-12-18T02:57:20;79.77;;;31.03;;
7647;SDS011;3866;48.020;11.720;2022-12-18T02:59:56;68.97;;;32.17;;
7647;SDS011;3866;48.020;11.720;2022-12-18T03:02:29;63.23;;;29.63;;
7647;SDS011;3866;48.020;11.720;2022-12-18T03:05:04;74.03;;;31.40;;
7647;SDS011;3866;48.020;11.720;2022-12-18T03:07:40;73.77;;;32.33;;
7647;SDS011;3866;48.020;11.720;2022-12-18T03:10:11;72.83;;;31.33;;
7647;SDS011;3866;48.020;11.720;2022-12-18T03:12:42;73.17;;;31.30;;
7647;SDS011;3866;48.020;11.720;2022-12-18T03:15:14;75.70;;;32.70;;
7647;SDS011;3866;48.020;11.720;2022-12-18T03:17:46;65.63;;;29.40;;
7647;SDS011;3866;48.020;11.720;2022-12-18T03:20:19;72.73;;;31.20;;
7647;SDS011;3866;48.020;11.720;2022-12-18T03:22:50;73.90;;;32.50;;
7647;SDS011;3866;48.020;11.720;2022-12-18T03:25:19;66.63;;;29.80;;
7647;SDS011;3866;48.020;11.720;2022-12-18T03:27:50;66.77;;;28.47;;
7647;SDS011;3866;48.020;11.720;2022-12-18T03:30:20;65.07;;;29.70;;
7647;SDS011;3866;48.020;11.720;2022-12-18T03:32:47;72.93;;;29.30;;
7647;SDS011;3866;48.020;11.720;2022-12-18T03:35:19;66.33;;;30.47;;
7647;SDS011;3866;48.020;11.720;2022-12-18T03:37:50;69.23;;;30.00;;
7647;SDS011;3866;48.020;11.720;2022-12-18T03:40:17;62.97;;;28.10;;
7647;SDS011;3866;48.020;11.720;2022-12-18T03:42:46;72.90;;;31.37;;
7647;SDS011;3866;48.020;11.720;2022-12-18T03:45:19;76.90;;;29.43;;
7647;SDS011;3866;48.020;11.720;2022-12-18T03:47:53;79.80;;;31.57;;
7647;SDS011;3866;48.020;11.720;2022-12-18T03:50:27;70.70;;;30.70;;
7647;SDS011;3866;48.020;11.720;2022-12-18T03:53:03;73.20;;;30.37;;
7647;SDS011;3866;48.020;11.720;2022-12-18T03:55:38;70.30;;;28.63;;
7647;SDS011;3866;48.020;11.720;2022-12-18T03:58:08;66.17;;;28.87;;
7647;SDS011;3866;48.020;11.720;2022-12-18T04:00:38;72.43;;;31.43;;
7647;SDS011;3866;48.020;11.720;2022-12-18T04:03:06;68.07;;;29.90;;
7647;SDS011;3866;48.020;11.720;2022-12-18T04:05:35;71.80;;;31.60;;
7647;SDS011;3866;48.020;11.720;2022-12-18T04:08:03;67.63;;;29.67;;
7647;SDS011;3866;48.020;11.720;2022-12-18T04:10:31;63.40;;;27.53;;
7647;SDS011;3866;48.020;11.720;2022-12-18T04:12:58;69.07;;;28.87;;
7647;SDS011;3866;48.020;11.720;2022-12-18T04:15:26;71.57;;;29.53;;
7647;SDS011;3866;48.020;11.720;2022-12-18T04:17:53;66.87;;;27.30;;
7647;SDS011;3866;48.020;11.720;2022-12-18T04:20:20;66.93;;;28.70;;
7647;SDS011;3866;48.020;11.720;2022-12-18T04:22:47;62.80;;;27.40;;
7647;SDS011;3866;48.020;11.720;2022-12-18T04:25:14;61.20;;;27.57;;
7647;SDS011;3866;48.020;11.720;2022-12-18T04:27:41;68.83;;;29.03;;
7647;SDS011;3866;48.020;11.720;2022-12-18T04:30:08;59.40;;;30.00;;
7647;SDS011;3866;48.020;11.720;2022-12-18T04:32:37;71.40;;;29.93;;
7647;SDS011;3866;48.020;11.720;2022-12-18T04:35:04;61.63;;;27.13;;
7647;SDS011;3866;48.020;11.720;2022-12-18T04:37:35;61.33;;;27.73;;
7647;SDS011;3866;48.020;11.720;2022-12-18T04:40:02;61.10;;;26.57;;
7647;SDS011;3866;48.020;11.720;2022-12-18T04:42:30;64.47;;;27.67;;
7647;SDS011;3866;48.020;11.720;2022-12-18T04:44:57;57.53;;;27.47;;
7647;SDS011;3866;48.020;11.720;2022-12-18T04:47:23;57.97;;;26.83;;
7647;SDS011;3866;48.020;11.720;2022-12-18T04:49:52;62.57;;;26.70;;
7647;SDS011;3866;48.020;11.720;2022-12-18T04:52:19;52.73;;;24.70;;
7647;SDS011;3866;48.020;11.720;2022-12-18T04:54:46;52.33;;;26.27;;
7647;SDS011;3866;48.020;11.720;2022-12-18T04:57:12;53.17;;;25.50;;
7647;SDS011;3866;48.020;11.720;2022-12-18T04:59:39;50.73;;;24.90;;
7647;SDS011;3866;48.020;11.720;2022-12-18T05:02:06;59.43;;;26.83;;
7647;SDS011;3866;48.020;11.720;2022-12-18T05:04:33;62.87;;;28.13;;
7647;SDS011;3866;48.020;11.720;2022-12-18T05:07:02;53.17;;;26.07;;
7647;SDS011;3866;48.020;11.720;2022-12-18T05:09:29;62.77;;;27.63;;
7647;SDS011;3866;48.020;11.720;2022-12-18T05:11:56;54.87;;;24.17;;
7647;SDS011;3866;48.020;11.720;2022-12-18T05:14:22;53.30;;;23.93;;
7647;SDS011;3866;48.020;11.720;2022-12-18T05:16:49;57.23;;;25.57;;
7647;SDS011;3866;48.020;11.720;2022-12-18T05:19:16;52.17;;;24.63;;
7647;SDS011;3866;48.020;11.720;2022-12-18T05:21:43;52.27;;;24.30;;
7647;SDS011;3866;48.020;11.720;2022-12-18T05:24:12;53.47;;;25.13;;
7647;SDS011;3866;48.020;11.720;2022-12-18T05:26:39;50.77;;;24.37;;
7647;SDS011;3866;48.020;11.720;2022-12-18T05:29:05;56.23;;;25.33;;
7647;SDS011;3866;48.020;11.720;2022-12-18T05:31:32;56.43;;;26.90;;
7647;SDS011;3866;48.020;11.720;2022-12-18T05:33:59;55.97;;;26.37;;
7647;SDS011;3866;48.020;11.720;2022-12-18T05:36:26;52.07;;;24.27;;
7647;SDS011;3866;48.020;11.720;2022-12-18T05:38:53;51.53;;;23.87;;
7647;SDS011;3866;48.020;11.720;2022-12-18T05:41:21;54.70;;;24.70;;
7647;SDS011;3866;48.020;11.720;2022-12-18T05:43:48;48.10;;;23.37;;
7647;SDS011;3866;48.020;11.720;2022-12-18T05:46:16;56.03;;;26.27;;
7647;SDS011;3866;48.020;11.720;2022-12-18T05:48:44;56.77;;;26.13;;
7647;SDS011;3866;48.020;11.720;2022-12-18T05:51:12;50.57;;;24.20;;
7647;SDS011;3866;48.020;11.720;2022-12-18T05:53:40;50.13;;;23.80;;
7647;SDS011;3866;48.020;11.720;2022-12-18T05:56:08;55.57;;;25.53;;
7647;SDS011;3866;48.020;11.720;2022-12-18T05:58:38;57.07;;;26.17;;
7647;SDS011;3866;48.020;11.720;2022-12-18T06:01:05;53.17;;;24.13;;
7647;SDS011;3866;48.020;11.720;2022-12-18T06:03:34;52.83;;;25.07;;
7647;SDS011;3866;48.020;11.720;2022-12-18T06:06:01;53.20;;;25.87;;
7647;SDS011;3866;48.020;11.720;2022-12-18T06:08:29;53.47;;;25.63;;
7647;SDS011;3866;48.020;11.720;2022-12-18T06:10:55;50.00;;;24.67;;
7647;SDS011;3866;48.020;11.720;2022-12-18T06:13:22;57.50;;;26.07;;
7647;SDS011;3866;48.020;11.720;2022-12-18T06:15:51;53.33;;;25.17;;
7647;SDS011;3866;48.020;11.720;2022-12-18T06:18:18;50.37;;;24.67;;
7647;SDS011;3866;48.020;11.720;2022-12-18T06:20:44;52.07;;;24.03;;
7647;SDS011;3866;48.020;11.720;2022-12-18T06:23:11;53.73;;;23.80;;
7647;SDS011;3866;48.020;11.720;2022-12-18T06:25:38;46.17;;;21.93;;
7647;SDS011;3866;48.020;11.720;2022-12-18T06:28:05;52.10;;;24.27;;
7647;SDS011;3866;48.020;11.720;2022-12-18T06:30:32;56.10;;;24.83;;
7647;SDS011;3866;48.020;11.720;2022-12-18T06:33:00;57.27;;;25.43;;
7647;SDS011;3866;48.020;11.720;2022-12-18T06:35:27;54.47;;;23.97;;
7647;SDS011;3866;48.020;11.720;2022-12-18T06:37:54;59.20;;;28.63;;
7647;SDS011;3866;48.020;11.720;2022-12-18T06:40:21;56.57;;;25.43;;
7647;SDS011;3866;48.020;11.720;2022-12-18T06:42:48;49.70;;;22.70;;
7647;SDS011;3866;48.020;11.720;2022-12-18T06:45:15;55.03;;;25.53;;
7647;SDS011;3866;48.020;11.720;2022-12-18T06:47:42;58.73;;;26.20;;
7647;SDS011;3866;48.020;11.720;2022-12-18T06:50:11;51.90;;;24.47;;
7647;SDS011;3866;48.020;11.720;2022-12-18T06:52:38;58.70;;;26.33;;
7647;SDS011;3866;48.020;11.720;2022-12-18T06:55:06;55.70;;;25.07;;
7647;SDS011;3866;48.020;11.720;2022-12-18T06:57:34;52.80;;;26.33;;
7647;SDS011;3866;48.020;11.720;2022-12-18T07:00:01;55.40;;;25.63;;
7647;SDS011;3866;48.020;11.720;2022-12-18T07:02:28;56.47;;;25.27;;
7647;SDS011;3866;48.020;11.720;2022-12-18T07:04:55;58.00;;;25.23;;
7647;SDS011;3866;48.020;11.720;2022-12-18T07:07:24;52.27;;;23.83;;
7647;SDS011;3866;48.020;11.720;2022-12-18T07:09:51;57.63;;;24.90;;
7647;SDS011;3866;48.020;11.720;2022-12-18T07:12:18;53.00;;;23.77;;
7647;SDS011;3866;48.020;11.720;2022-12-18T07:14:45;50.73;;;23.60;;
7647;SDS011;3866;48.020;11.720;2022-12-18T07:17:11;53.87;;;24.63;;
7647;SDS011;3866;48.020;11.720;2022-12-18T07:19:39;51.00;;;23.63;;
7647;SDS011;3866;48.020;11.720;2022-12-18T07:22:05;50.90;;;24.03;;
7647;SDS011;3866;48.020;11.720;2022-12-18T07:24:34;54.67;;;22.73;;
7647;SDS011;3866;48.020;11.720;2022-12-18T07:27:00;50.63;;;24.20;;
7647;SDS011;3866;48.020;11.720;2022-12-18T07:29:27;45.77;;;22.80;;
7647;SDS011;3866;48.020;11.720;2022-12-18T07:31:54;51.57;;;24.50;;
7647;SDS011;3866;48.020;11.720;2022-12-18T07:34:21;49.50;;;22.60;;
7647;SDS011;3866;48.020;11.720;2022-12-18T07:36:48;46.73;;;22.13;;
7647;SDS011;3866;48.020;11.720;2022-12-18T07:39:15;49.90;;;23.40;;
7647;SDS011;3866;48.020;11.720;2022-12-18T07:41:43;45.77;;;22.43;;
7647;SDS011;3866;48.020;11.720;2022-12-18T07:44:30;44.13;;;21.17;;
7647;SDS011;3866;48.020;11.720;2022-12-18T07:46:57;42.97;;;20.87;;
7647;SDS011;3866;48.020;11.720;2022-12-18T07:49:24;49.57;;;22.17;;
7647;SDS011;3866;48.020;11.720;2022-12-18T07:51:51;45.33;;;20.70;;
7647;SDS011;3866;48.020;11.720;2022-12-18T07:54:21;43.73;;;20.80;;
7647;SDS011;3866;48.020;11.720;2022-12-18T07:56:49;42.93;;;20.90;;
7647;SDS011;3866;48.020;11.720;2022-12-18T07:59:16;47.37;;;21.73;;
7647;SDS011;3866;48.020;11.720;2022-12-18T08:01:43;39.87;;;20.23;;
7647;SDS011;3866;48.020;11.720;2022-12-18T08:04:10;41.83;;;19.67;;
7647;SDS011;3866;48.020;11.720;2022-12-18T08:06:37;44.07;;;20.53;;
7647;SDS011;3866;48.020;11.720;2022-12-18T08:09:04;42.33;;;19.90;;
7647;SDS011;3866;48.020;11.720;2022-12-18T08:11:33;44.73;;;22.50;;
7647;SDS011;3866;48.020;11.720;2022-12-18T08:14:01;47.73;;;21.83;;
7647;SDS011;3866;48.020;11.720;2022-12-18T08:16:28;45.43;;;21.53;;
7647;SDS011;3866;48.020;11.720;2022-12-18T08:18:55;41.37;;;20.50;;
7647;SDS011;3866;48.020;11.720;2022-12-18T08:21:23;46.57;;;21.03;;
7647;SDS011;3866;48.020;11.720;2022-12-18T08:23:52;38.77;;;19.80;;
7647;SDS011;3866;48.020;11.720;2022-12-18T08:26:19;43.20;;;20.97;;
7647;SDS011;3866;48.020;11.720;2022-12-18T08:28:47;42.67;;;18.63;;
7647;SDS011;3866;48.020;11.720;2022-12-18T08:31:17;46.20;;;19.37;;
7647;SDS011;3866;48.020;11.720;2022-12-18T08:33:45;39.07;;;20.60;;
7647;SDS011;3866;48.020;11.720;2022-12-18T08:36:14;43.47;;;18.63;;
7647;SDS011;3866;48.020;11.720;2022-12-18T08:38:40;44.27;;;21.33;;
7647;SDS011;3866;48.020;11.720;2022-12-18T08:41:08;42.27;;;20.93;;
7647;SDS011;3866;48.020;11.720;2022-12-18T08:43:37;44.10;;;19.57;;
7647;SDS011;3866;48.020;11.720;2022-12-18T08:46:24;39.47;;;19.73;;
7647;SDS011;3866;48.020;11.720;2022-12-18T08:48:53;42.17;;;20.03;;
7647;SDS011;3866;48.020;11.720;2022-12-18T08:51:20;43.27;;;20.43;;
7647;SDS011;3866;48.020;11.720;2022-12-18T08:53:48;38.77;;;19.83;;
7647;SDS011;3866;48.020;11.720;2022-12-18T08:56:15;42.30;;;19.37;;
7647;SDS011;3866;48.020;11.720;2022-12-18T08:58:42;40.60;;;18.73;;
7647;SDS011;3866;48.020;11.720;2022-12-18T09:01:09;40.53;;;19.83;;
7647;SDS011;3866;48.020;11.720;2022-12-18T09:03:38;42.60;;;19.33;;
7647;SDS011;3866;48.020;11.720;2022-12-18T09:06:06;45.23;;;20.77;;
7647;SDS011;3866;48.020;11.720;2022-12-18T09:08:33;40.27;;;20.67;;
7647;SDS011;3866;48.020;11.720;2022-12-18T09:11:01;40.87;;;21.50;;
7647;SDS011;3866;48.020;11.720;2022-12-18T09:13:28;41.73;;;21.07;;
7647;SDS011;3866;48.020;11.720;2022-12-18T09:15:55;42.23;;;19.83;;
7647;SDS011;3866;48.020;11.720;2022-12-18T09:18:23;43.63;;;21.47;;
7647;SDS011;3866;48.020;11.720;2022-12-18T09:20:52;44.57;;;20.93;;
7647;SDS011;3866;48.020;11.720;2022-12-18T09:23:18;45.80;;;21.13;;
7647;SDS011;3866;48.020;11.720;2022-12-18T09:25:46;44.33;;;20.50;;
7647;SDS011;3866;48.020;11.720;2022-12-18T09:28:13;46.27;;;20.37;;
7647;SDS011;3866;48.020;11.720;2022-12-18T09:30:43;44.73;;;20.97;;
7647;SDS011;3866;48.020;11.720;2022-12-18T09:33:11;43.53;;;20.30;;
7647;SDS011;3866;48.020;11.720;2022-12-18T09:35:39;36.27;;;18.73;;
7647;SDS011;3866;48.020;11.720;2022-12-18T09:38:08;38.43;;;17.57;;
7647;SDS011;3866;48.020;11.720;2022-12-18T09:40:40;39.50;;;20.73;;
7647;SDS011;3866;48.020;11.720;2022-12-18T09:43:12;42.43;;;20.57;;
7647;SDS011;3866;48.020;11.720;2022-12-18T09:45:42;37.77;;;19.57;;
7647;SDS011;3866;48.020;11.720;2022-12-18T09:48:13;37.10;;;19.77;;
7647;SDS011;3866;48.020;11.720;2022-12-18T09:50:45;33.43;;;18.20;;
7647;SDS011;3866;48.020;11.720;2022-12-18T09:53:15;37.40;;;18.67;;
7647;SDS011;3866;48.020;11.720;2022-12-18T09:55:46;35.53;;;18.53;;
7647;SDS011;3866;48.020;11.720;2022-12-18T09:58:16;35.67;;;18.97;;
7647;SDS011;3866;48.020;11.720;2022-12-18T10:00:46;45.17;;;20.33;;
7647;SDS011;3866;48.020;11.720;2022-12-18T10:03:14;39.57;;;18.93;;
7647;SDS011;3866;48.020;11.720;2022-12-18T10:05:43;39.67;;;19.13;;
7647;SDS011;3866;48.020;11.720;2022-12-18T10:08:21;40.70;;;20.03;;
7647;SDS011;3866;48.020;11.720;2022-12-18T10:10:56;39.83;;;20.63;;
7647;SDS011;3866;48.020;11.720;2022-12-18T10:13:28;38.87;;;18.67;;
7647;SDS011;3866;48.020;11.720;2022-12-18T10:16:09;44.50;;;20.23;;
7647;SDS011;3866;48.020;11.720;2022-12-18T10:18:47;36.80;;;19.13;;
7647;SDS011;3866;48.020;11.720;2022-12-18T10:21:26;47.73;;;20.93;;
7647;SDS011;3866;48.020;11.720;2022-12-18T10:24:01;43.70;;;20.53;;
7647;SDS011;3866;48.020;11.720;2022-12-18T10:26:39;37.33;;;19.23;;
7647;SDS011;3866;48.020;11.720;2022-12-18T10:29:08;37.40;;;18.97;;
7647;SDS011;3866;48.020;11.720;2022-12-18T10:31:38;36.37;;;17.83;;
7647;SDS011;3866;48.020;11.720;2022-12-18T10:34:08;39.77;;;19.17;;
7647;SDS011;3866;48.020;11.720;2022-12-18T10:36:36;37.23;;;19.53;;
7647;SDS011;3866;48.020;11.720;2022-12-18T10:39:15;40.43;;;20.77;;
7647;SDS011;3866;48.020;11.720;2022-12-18T10:41:43;32.77;;;17.20;;
7647;SDS011;3866;48.020;11.720;2022-12-18T10:44:12;37.37;;;19.90;;
7647;SDS011;3866;48.020;11.720;2022-12-18T10:46:43;39.23;;;19.10;;
7647;SDS011;3866;48.020;11.720;2022-12-18T10:49:18;38.40;;;18.20;;
7647;SDS011;3866;48.020;11.720;2022-12-18T10:51:48;35.63;;;17.70;;
7647;SDS011;3866;48.020;11.720;2022-12-18T10:54:17;38.00;;;18.63;;
7647;SDS011;3866;48.020;11.720;2022-12-18T10:56:47;42.23;;;19.03;;
7647;SDS011;3866;48.020;11.720;2022-12-18T10:59:15;37.90;;;18.73;;
7647;SDS011;3866;48.020;11.720;2022-12-18T11:01:48;35.47;;;17.83;;
7647;SDS011;3866;48.020;11.720;2022-12-18T11:04:17;39.13;;;19.87;;
7647;SDS011;3866;48.020;11.720;2022-12-18T11:06:54;37.17;;;19.43;;
7647;SDS011;3866;48.020;11.720;2022-12-18T11:09:25;34.90;;;17.30;;
7647;SDS011;3866;48.020;11.720;2022-12-18T11:11:54;37.77;;;19.03;;
7647;SDS011;3866;48.020;11.720;2022-12-18T11:14:23;37.07;;;17.73;;
7647;SDS011;3866;48.020;11.720;2022-12-18T11:16:52;38.00;;;19.03;;
7647;SDS011;3866;48.020;11.720;2022-12-18T11:19:21;35.23;;;17.33;;
7647;SDS011;3866;48.020;11.720;2022-12-18T11:21:57;36.27;;;17.67;;
7647;SDS011;3866;48.020;11.720;2022-12-18T11:24:27;36.67;;;17.50;;
7647;SDS011;3866;48.020;11.720;2022-12-18T11:26:57;29.90;;;17.73;;
7647;SDS011;3866;48.020;11.720;2022-12-18T11:29:30;32.10;;;16.03;;
7647;SDS011;3866;48.020;11.720;2022-12-18T11:34:57;37.23;;;17.47;;
7647;SDS011;3866;48.020;11.720;2022-12-18T11:37:29;37.70;;;17.13;;
7647;SDS011;3866;48.020;11.720;2022-12-18T11:39:59;32.70;;;16.97;;
7647;SDS011;3866;48.020;11.720;2022-12-18T11:42:38;31.23;;;16.70;;
7647;SDS011;3866;48.020;11.720;2022-12-18T11:45:20;29.80;;;17.10;;
7647;SDS011;3866;48.020;11.720;2022-12-18T11:47:54;31.77;;;17.33;;
7647;SDS011;3866;48.020;11.720;2022-12-18T11:50:25;33.43;;;15.87;;
7647;SDS011;3866;48.020;11.720;2022-12-18T11:52:59;31.17;;;16.30;;
7647;SDS011;3866;48.020;11.720;2022-12-18T11:55:31;33.90;;;16.80;;
7647;SDS011;3866;48.020;11.720;2022-12-18T11:58:07;35.93;;;17.73;;
7647;SDS011;3866;48.020;11.720;2022-12-18T12:00:46;32.57;;;16.80;;
7647;SDS011;3866;48.020;11.720;2022-12-18T12:03:22;31.40;;;16.50;;
7647;SDS011;3866;48.020;11.720;2022-12-18T12:06:08;32.67;;;16.67;;
7647;SDS011;3866;48.020;11.720;2022-12-18T12:08:42;31.30;;;16.87;;
7647;SDS011;3866;48.020;11.720;2022-12-18T12:11:20;35.97;;;18.70;;
7647;SDS011;3866;48.020;11.720;2022-12-18T12:13:56;32.20;;;16.63;;
7647;SDS011;3866;48.020;11.720;2022-12-18T12:16:41;36.70;;;16.80;;
7647;SDS011;3866;48.020;11.720;2022-12-18T12:19:19;33.03;;;16.50;;
7647;SDS011;3866;48.020;11.720;2022-12-18T12:21:58;35.43;;;17.33;;
7647;SDS011;3866;48.020;11.720;2022-12-18T12:24:34;31.53;;;15.70;;
7647;SDS011;3866;48.020;11.720;2022-12-18T12:27:14;31.93;;;17.63;;
7647;SDS011;3866;48.020;11.720;2022-12-18T12:29:47;34.53;;;17.10;;
7647;SDS011;3866;48.020;11.720;2022-12-18T12:32:28;35.90;;;17.13;;
7647;SDS011;3866;48.020;11.720;2022-12-18T12:35:07;34.63;;;16.87;;
7647;SDS011;3866;48.020;11.720;2022-12-18T12:37:46;33.87;;;16.90;;
7647;SDS011;3866;48.020;11.720;2022-12-18T12:40:19;33.63;;;16.67;;
7647;SDS011;3866;48.020;11.720;2022-12-18T12:42:51;35.13;;;18.40;;
7647;SDS011;3866;48.020;11.720;2022-12-18T12:45:40;35.03;;;17.20;;
7647;SDS011;3866;48.020;11.720;2022-12-18T12:48:15;34.07;;;18.40;;
7647;SDS011;3866;48.020;11.720;2022-12-18T12:50:45;34.70;;;17.73;;
7647;SDS011;3866;48.020;11.720;2022-12-18T12:53:21;33.30;;;16.50;;
7647;SDS011;3866;48.020;11.720;2022-12-18T12:55:52;33.43;;;18.00;;
7647;SDS011;3866;48.020;11.720;2022-12-18T12:58:25;33.93;;;17.97;;
7647;SDS011;3866;48.020;11.720;2022-12-18T13:01:00;35.63;;;19.80;;
7647;SDS011;3866;48.020;11.720;2022-12-18T13:03:35;36.10;;;18.27;;
7647;SDS011;3866;48.020;11.720;2022-12-18T13:06:11;34.83;;;17.73;;
7647;SDS011;3866;48.020;11.720;2022-12-18T13:08:53;42.23;;;17.77;;
7647;SDS011;3866;48.020;11.720;2022-12-18T13:11:29;37.87;;;18.70;;
7647;SDS011;3866;48.020;11.720;2022-12-18T13:14:24;35.30;;;18.83;;
7647;SDS011;3866;48.020;11.720;2022-12-18T13:19:41;33.97;;;17.57;;
7647;SDS011;3866;48.020;11.720;2022-12-18T13:22:19;39.43;;;17.97;;
7647;SDS011;3866;48.020;11.720;2022-12-18T13:24:48;35.17;;;18.97;;
7647;SDS011;3866;48.020;11.720;2022-12-18T13:36:09;38.80;;;19.03;;
7647;SDS011;3866;48.020;11.720;2022-12-18T13:38:40;39.60;;;20.03;;
7647;SDS011;3866;48.020;11.720;2022-12-18T13:41:25;36.93;;;19.40;;
7647;SDS011;3866;48.020;11.720;2022-12-18T13:43:53;40.57;;;19.73;;
7647;SDS011;3866;48.020;11.720;2022-12-18T13:46:25;44.00;;;19.73;;
7647;SDS011;3866;48.020;11.720;2022-12-18T13:48:55;36.50;;;18.87;;
7647;SDS011;3866;48.020;11.720;2022-12-18T13:51:26;40.77;;;19.90;;
7647;SDS011;3866;48.020;11.720;2022-12-18T13:53:54;40.83;;;19.03;;
7647;SDS011;3866;48.020;11.720;2022-12-18T13:56:24;37.93;;;19.43;;
7647;SDS011;3866;48.020;11.720;2022-12-18T14:01:49;37.93;;;19.57;;
7647;SDS011;3866;48.020;11.720;2022-12-18T14:04:20;36.53;;;19.17;;
7647;SDS011;3866;48.020;11.720;2022-12-18T14:06:50;36.13;;;18.57;;
7647;SDS011;3866;48.020;11.720;2022-12-18T14:09:19;41.13;;;19.90;;
7647;SDS011;3866;48.020;11.720;2022-12-18T14:11:50;36.70;;;19.27;;
7647;SDS011;3866;48.020;11.720;2022-12-18T14:14:18;39.20;;;18.93;;
7647;SDS011;3866;48.020;11.720;2022-12-18T14:16:45;36.70;;;20.33;;
7647;SDS011;3866;48.020;11.720;2022-12-18T14:19:20;41.70;;;19.37;;
7647;SDS011;3866;48.020;11.720;2022-12-18T14:21:50;36.80;;;20.47;;
7647;SDS011;3866;48.020;11.720;2022-12-18T14:24:18;41.77;;;20.53;;
7647;SDS011;3866;48.020;11.720;2022-12-18T14:26:50;40.63;;;20.10;;
7647;SDS011;3866;48.020;11.720;2022-12-18T14:29:18;37.27;;;18.30;;
7647;SDS011;3866;48.020;11.720;2022-12-18T14:34:36;37.43;;;18.00;;
7647;SDS011;3866;48.020;11.720;2022-12-18T14:37:08;33.30;;;18.30;;
7647;SDS011;3866;48.020;11.720;2022-12-18T14:39:36;37.63;;;19.17;;
7647;SDS011;3866;48.020;11.720;2022-12-18T14:42:04;34.50;;;17.80;;
7647;SDS011;3866;48.020;11.720;2022-12-18T14:44:31;34.53;;;18.57;;
7647;SDS011;3866;48.020;11.720;2022-12-18T14:46:58;35.77;;;18.37;;
7647;SDS011;3866;48.020;11.720;2022-12-18T14:49:29;37.97;;;18.43;;
7647;SDS011;3866;48.020;11.720;2022-12-18T14:51:57;38.07;;;17.77;;
7647;SDS011;3866;48.020;11.720;2022-12-18T14:54:26;38.70;;;19.77;;
7647;SDS011;3866;48.020;11.720;2022-12-18T14:56:55;69.53;;;33.57;;
7647;SDS011;3866;48.020;11.720;2022-12-18T14:59:26;35.63;;;17.80;;
7647;SDS011;3866;48.020;11.720;2022-12-18T15:01:59;39.97;;;20.20;;
7647;SDS011;3866;48.020;11.720;2022-12-18T15:04:33;34.77;;;19.07;;
7647;SDS011;3866;48.020;11.720;2022-12-18T15:07:07;38.63;;;19.77;;
7647;SDS011;3866;48.020;11.720;2022-12-18T15:09:37;39.97;;;20.63;;
7647;SDS011;3866;48.020;11.720;2022-12-18T15:12:17;39.17;;;19.67;;